APG553 RPVE-RPVM
Flight info
| Callsign | APG553 |
|---|---|
| Flight time | 0h 32m |
| Altitude | 23000 |
| Route | KLO8A KLO TR15 ROX B473 DUDAR DUDAR3P |
| Aircraft | A320/M-SDE3FGHIRWY/LB1 |
Departure
| Time | 2026-04-30 08:54 |
|---|---|
| Airport | Godofredo P. Ramos Airport (RPVE) |
Arrival
| Time | 2026-04-30 09:26 |
|---|---|
| Airport | Mactan Cebu International Airport (RPVM) |
| Time | Latitude | Longitude | Altitude | Speed | Heading |
|---|---|---|---|---|---|
| 2026-04-30 08:43 | 11.92631 | 121.96332 | 30 ft | 0 kts | 153° |
| 2026-04-30 08:44 | 11.92642 | 121.96326 | 30 ft | 2 kts | 153° |
| 2026-04-30 08:45 | 11.92655 | 121.96320 | 30 ft | 2 kts | 154° |
| 2026-04-30 08:45 | 11.92670 | 121.96317 | 30 ft | 2 kts | 187° |
| 2026-04-30 08:45 | 11.92685 | 121.96321 | 30 ft | 2 kts | 212° |
| 2026-04-30 08:45 | 11.92695 | 121.96331 | 30 ft | 1 kts | 237° |
| 2026-04-30 08:46 | 11.92698 | 121.96336 | 30 ft | 1 kts | 245° |
| 2026-04-30 08:46 | 11.92699 | 121.96339 | 30 ft | 0 kts | 243° |
| 2026-04-30 08:48 | 11.92694 | 121.96329 | 30 ft | 2 kts | 243° |
| 2026-04-30 08:48 | 11.92682 | 121.96305 | 30 ft | 4 kts | 243° |
| 2026-04-30 08:48 | 11.92663 | 121.96267 | 30 ft | 7 kts | 242° |
| 2026-04-30 08:48 | 11.92640 | 121.96223 | 30 ft | 5 kts | 248° |
| 2026-04-30 08:49 | 11.92653 | 121.96191 | 30 ft | 6 kts | 323° |
| 2026-04-30 08:49 | 11.92698 | 121.96166 | 30 ft | 7 kts | 332° |
| 2026-04-30 08:49 | 11.92751 | 121.96139 | 30 ft | 9 kts | 333° |
| 2026-04-30 08:49 | 11.92795 | 121.96089 | 30 ft | 10 kts | 272° |
| 2026-04-30 08:50 | 11.92766 | 121.96014 | 30 ft | 12 kts | 243° |
| 2026-04-30 08:50 | 11.92721 | 121.95926 | 30 ft | 15 kts | 243° |
| 2026-04-30 08:50 | 11.92667 | 121.95818 | 30 ft | 18 kts | 243° |
| 2026-04-30 08:50 | 11.92601 | 121.95686 | 30 ft | 23 kts | 243° |
| 2026-04-30 08:51 | 11.92524 | 121.95531 | 30 ft | 24 kts | 243° |
| 2026-04-30 08:51 | 11.92445 | 121.95376 | 30 ft | 24 kts | 243° |
| 2026-04-30 08:51 | 11.92368 | 121.95222 | 30 ft | 24 kts | 243° |
| 2026-04-30 08:51 | 11.92297 | 121.95086 | 30 ft | 15 kts | 235° |
| 2026-04-30 08:52 | 11.92242 | 121.95029 | 30 ft | 7 kts | 227° |
| 2026-04-30 08:52 | 11.92238 | 121.95003 | 30 ft | 3 kts | 308° |
| 2026-04-30 08:52 | 11.92254 | 121.95002 | 30 ft | 2 kts | 36° |
| 2026-04-30 08:52 | 11.92266 | 121.95019 | 30 ft | 1 kts | 63° |
| 2026-04-30 08:53 | 11.92353 | 121.95194 | 30 ft | 65 kts | 63° |
| 2026-04-30 08:53 | 11.92674 | 121.95829 | 30 ft | 133 kts | 63° |
| 2026-04-30 08:53 | 11.93156 | 121.96697 | 505 ft | 144 kts | 63° |
| 2026-04-30 08:54 | 11.93623 | 121.97608 | 1172 ft | 147 kts | 65° |
| 2026-04-30 08:54 | 11.94069 | 121.98521 | 1873 ft | 147 kts | 65° |
| 2026-04-30 08:54 | 11.94541 | 121.99491 | 2293 ft | 160 kts | 65° |
| 2026-04-30 08:54 | 11.95062 | 122.00556 | 2672 ft | 177 kts | 64° |
| 2026-04-30 08:55 | 11.95602 | 122.01751 | 3006 ft | 197 kts | 75° |
| 2026-04-30 08:55 | 11.95606 | 122.03209 | 3397 ft | 218 kts | 104° |
| 2026-04-30 08:55 | 11.94831 | 122.04615 | 3859 ft | 239 kts | 125° |
| 2026-04-30 08:55 | 11.93746 | 122.05977 | 4323 ft | 257 kts | 126° |
| 2026-04-30 08:56 | 11.92603 | 122.07426 | 4984 ft | 265 kts | 126° |
| 2026-04-30 08:56 | 11.91446 | 122.08895 | 5747 ft | 268 kts | 126° |
| 2026-04-30 08:56 | 11.90285 | 122.10372 | 6482 ft | 272 kts | 126° |
| 2026-04-30 08:56 | 11.89086 | 122.11898 | 7231 ft | 276 kts | 127° |
| 2026-04-30 08:57 | 11.87889 | 122.13422 | 7981 ft | 280 kts | 127° |
| 2026-04-30 08:57 | 11.86680 | 122.14963 | 8723 ft | 283 kts | 127° |
| 2026-04-30 08:57 | 11.85443 | 122.16537 | 9475 ft | 286 kts | 127° |
| 2026-04-30 08:57 | 11.84187 | 122.18134 | 10205 ft | 290 kts | 127° |
| 2026-04-30 08:58 | 11.82927 | 122.19737 | 10927 ft | 293 kts | 127° |
| 2026-04-30 08:58 | 11.81644 | 122.21372 | 11433 ft | 303 kts | 127° |
| 2026-04-30 08:58 | 11.80281 | 122.23109 | 11732 ft | 321 kts | 127° |
| 2026-04-30 08:58 | 11.78854 | 122.24927 | 12001 ft | 337 kts | 127° |
| 2026-04-30 08:59 | 11.77345 | 122.26846 | 12251 ft | 353 kts | 127° |
| 2026-04-30 08:59 | 11.75789 | 122.28825 | 12474 ft | 367 kts | 128° |
| 2026-04-30 08:59 | 11.74153 | 122.30906 | 12704 ft | 380 kts | 128° |
| 2026-04-30 08:59 | 11.72469 | 122.33048 | 12911 ft | 393 kts | 128° |
| 2026-04-30 09:00 | 11.70744 | 122.35244 | 13107 ft | 403 kts | 127° |
| 2026-04-30 09:00 | 11.69191 | 122.37630 | 13409 ft | 409 kts | 118° |
| 2026-04-30 09:00 | 11.67990 | 122.40287 | 13858 ft | 411 kts | 110° |
| 2026-04-30 09:00 | 11.67188 | 122.43057 | 14268 ft | 413 kts | 103° |
| 2026-04-30 09:01 | 11.66522 | 122.45901 | 14679 ft | 415 kts | 102° |
| 2026-04-30 09:01 | 11.65872 | 122.48783 | 15094 ft | 417 kts | 102° |
| 2026-04-30 09:01 | 11.65218 | 122.51671 | 15496 ft | 419 kts | 102° |
| 2026-04-30 09:01 | 11.64549 | 122.54591 | 15900 ft | 421 kts | 102° |
| 2026-04-30 09:02 | 11.63201 | 122.60394 | 16598 ft | 425 kts | 102° |
| 2026-04-30 09:02 | 11.62517 | 122.63326 | 16939 ft | 427 kts | 102° |
| 2026-04-30 09:02 | 11.61824 | 122.66293 | 17238 ft | 430 kts | 102° |
| 2026-04-30 09:03 | 11.61130 | 122.69265 | 17595 ft | 431 kts | 102° |
| 2026-04-30 09:03 | 11.60369 | 122.72186 | 17987 ft | 431 kts | 109° |
| 2026-04-30 09:03 | 11.58936 | 122.74886 | 18346 ft | 434 kts | 125° |
| 2026-04-30 09:03 | 11.56814 | 122.77087 | 18721 ft | 437 kts | 140° |
| 2026-04-30 09:04 | 11.54260 | 122.78727 | 19102 ft | 438 kts | 148° |
| 2026-04-30 09:04 | 11.51594 | 122.80283 | 19472 ft | 438 kts | 148° |
| 2026-04-30 09:04 | 11.48937 | 122.81828 | 19818 ft | 438 kts | 148° |
| 2026-04-30 09:04 | 11.46302 | 122.83369 | 20167 ft | 439 kts | 148° |
| 2026-04-30 09:05 | 11.43645 | 122.84928 | 20524 ft | 439 kts | 148° |
| 2026-04-30 09:05 | 11.40998 | 122.86486 | 20875 ft | 439 kts | 148° |
| 2026-04-30 09:05 | 11.38360 | 122.88041 | 21222 ft | 439 kts | 148° |
| 2026-04-30 09:05 | 11.35702 | 122.89606 | 21568 ft | 439 kts | 148° |
| 2026-04-30 09:06 | 11.33075 | 122.91153 | 21913 ft | 439 kts | 148° |
| 2026-04-30 09:06 | 11.30420 | 122.92712 | 22266 ft | 439 kts | 148° |
| 2026-04-30 09:06 | 11.27777 | 122.94263 | 22633 ft | 439 kts | 148° |
| 2026-04-30 09:06 | 11.25109 | 122.95830 | 22891 ft | 442 kts | 148° |
| 2026-04-30 09:07 | 11.22430 | 122.97406 | 22918 ft | 450 kts | 148° |
| 2026-04-30 09:07 | 11.19690 | 122.99017 | 22914 ft | 458 kts | 148° |
| 2026-04-30 09:07 | 11.16904 | 123.00656 | 22911 ft | 465 kts | 148° |
| 2026-04-30 09:07 | 11.14052 | 123.02332 | 22911 ft | 472 kts | 148° |
| 2026-04-30 09:08 | 11.11183 | 123.04018 | 22902 ft | 478 kts | 148° |
| 2026-04-30 09:08 | 11.08292 | 123.05718 | 22909 ft | 482 kts | 148° |
| 2026-04-30 09:08 | 11.05387 | 123.07425 | 22839 ft | 484 kts | 148° |
| 2026-04-30 09:08 | 11.02468 | 123.09140 | 22598 ft | 482 kts | 148° |
| 2026-04-30 09:09 | 10.99545 | 123.10857 | 22321 ft | 480 kts | 149° |
| 2026-04-30 09:09 | 10.96680 | 123.12539 | 21869 ft | 477 kts | 148° |
| 2026-04-30 09:09 | 10.93802 | 123.14221 | 21309 ft | 471 kts | 148° |
| 2026-04-30 09:09 | 10.90976 | 123.15875 | 20704 ft | 465 kts | 148° |
| 2026-04-30 09:10 | 10.88172 | 123.17519 | 20081 ft | 460 kts | 148° |
| 2026-04-30 09:10 | 10.85410 | 123.19142 | 19450 ft | 454 kts | 148° |
| 2026-04-30 09:10 | 10.82705 | 123.20731 | 18827 ft | 449 kts | 148° |
| 2026-04-30 09:10 | 10.80014 | 123.22311 | 18195 ft | 443 kts | 148° |
| 2026-04-30 09:11 | 10.77380 | 123.23860 | 17557 ft | 437 kts | 147° |
| 2026-04-30 09:11 | 10.74825 | 123.25519 | 16900 ft | 431 kts | 143° |
| 2026-04-30 09:11 | 10.72443 | 123.27325 | 16202 ft | 425 kts | 139° |
| 2026-04-30 09:11 | 10.70214 | 123.29280 | 15474 ft | 420 kts | 136° |
| 2026-04-30 09:12 | 10.68082 | 123.31252 | 14750 ft | 416 kts | 135° |
| 2026-04-30 09:12 | 10.65941 | 123.33251 | 14006 ft | 413 kts | 135° |
| 2026-04-30 09:12 | 10.63849 | 123.35204 | 13265 ft | 410 kts | 136° |
| 2026-04-30 09:12 | 10.61778 | 123.37133 | 12678 ft | 401 kts | 136° |
| 2026-04-30 09:13 | 10.59731 | 123.39033 | 12204 ft | 390 kts | 136° |
| 2026-04-30 09:13 | 10.57772 | 123.40849 | 11845 ft | 377 kts | 136° |
| 2026-04-30 09:13 | 10.55866 | 123.42616 | 11498 ft | 364 kts | 135° |
| 2026-04-30 09:13 | 10.54027 | 123.44321 | 11192 ft | 352 kts | 135° |
| 2026-04-30 09:14 | 10.52229 | 123.45984 | 10906 ft | 339 kts | 135° |
| 2026-04-30 09:14 | 10.50527 | 123.47559 | 10665 ft | 327 kts | 135° |
| 2026-04-30 09:14 | 10.48872 | 123.49091 | 10448 ft | 316 kts | 135° |
| 2026-04-30 09:14 | 10.47280 | 123.50568 | 10255 ft | 305 kts | 135° |
| 2026-04-30 09:15 | 10.45733 | 123.52003 | 10085 ft | 294 kts | 135° |
| 2026-04-30 09:15 | 10.44246 | 123.53384 | 9871 ft | 286 kts | 135° |
| 2026-04-30 09:15 | 10.42778 | 123.54747 | 9488 ft | 286 kts | 135° |
| 2026-04-30 09:15 | 10.41315 | 123.56105 | 9113 ft | 285 kts | 135° |
| 2026-04-30 09:16 | 10.39839 | 123.57471 | 8749 ft | 284 kts | 135° |
| 2026-04-30 09:16 | 10.38390 | 123.58813 | 8401 ft | 282 kts | 135° |
| 2026-04-30 09:16 | 10.36949 | 123.60146 | 8054 ft | 280 kts | 135° |
| 2026-04-30 09:16 | 10.35512 | 123.61474 | 7708 ft | 278 kts | 135° |
| 2026-04-30 09:17 | 10.34114 | 123.62804 | 7366 ft | 275 kts | 132° |
| 2026-04-30 09:17 | 10.32751 | 123.64181 | 7026 ft | 273 kts | 131° |
| 2026-04-30 09:17 | 10.31407 | 123.65550 | 6701 ft | 271 kts | 131° |
| 2026-04-30 09:17 | 10.30086 | 123.66898 | 6381 ft | 269 kts | 131° |
| 2026-04-30 09:18 | 10.28773 | 123.68237 | 6055 ft | 267 kts | 131° |
| 2026-04-30 09:18 | 10.27463 | 123.69571 | 5722 ft | 265 kts | 131° |
| 2026-04-30 09:18 | 10.26157 | 123.70901 | 5382 ft | 264 kts | 132° |
| 2026-04-30 09:18 | 10.24867 | 123.72213 | 5046 ft | 262 kts | 132° |
| 2026-04-30 09:19 | 10.23573 | 123.73531 | 4703 ft | 261 kts | 132° |
| 2026-04-30 09:19 | 10.22297 | 123.74828 | 4366 ft | 260 kts | 132° |
| 2026-04-30 09:19 | 10.21016 | 123.76128 | 4020 ft | 258 kts | 132° |
| 2026-04-30 09:19 | 10.19759 | 123.77405 | 3693 ft | 249 kts | 132° |
| 2026-04-30 09:20 | 10.18562 | 123.78619 | 3378 ft | 236 kts | 132° |
| 2026-04-30 09:20 | 10.17449 | 123.79745 | 3282 ft | 213 kts | 131° |
| 2026-04-30 09:20 | 10.16519 | 123.80796 | 3276 ft | 188 kts | 117° |
| 2026-04-30 09:20 | 10.16194 | 123.82031 | 3215 ft | 181 kts | 88° |
| 2026-04-30 09:21 | 10.16519 | 123.83244 | 3098 ft | 180 kts | 60° |
| 2026-04-30 09:21 | 10.17338 | 123.84219 | 2982 ft | 181 kts | 46° |
| 2026-04-30 09:21 | 10.18241 | 123.85117 | 2858 ft | 181 kts | 45° |
| 2026-04-30 09:21 | 10.19151 | 123.86014 | 2737 ft | 181 kts | 45° |
| 2026-04-30 09:22 | 10.20038 | 123.86892 | 2609 ft | 174 kts | 45° |
| 2026-04-30 09:22 | 10.20878 | 123.87727 | 2465 ft | 163 kts | 45° |
| 2026-04-30 09:22 | 10.21674 | 123.88520 | 2292 ft | 152 kts | 45° |
| 2026-04-30 09:22 | 10.22388 | 123.89235 | 2147 ft | 140 kts | 45° |
| 2026-04-30 09:23 | 10.23079 | 123.89926 | 1960 ft | 136 kts | 45° |
| 2026-04-30 09:23 | 10.23750 | 123.90602 | 1787 ft | 136 kts | 45° |
| 2026-04-30 09:23 | 10.24425 | 123.91280 | 1609 ft | 135 kts | 45° |
| 2026-04-30 09:23 | 10.25093 | 123.91952 | 1436 ft | 135 kts | 45° |
| 2026-04-30 09:24 | 10.25764 | 123.92625 | 1263 ft | 135 kts | 45° |
| 2026-04-30 09:24 | 10.26433 | 123.93298 | 1088 ft | 134 kts | 45° |
| 2026-04-30 09:24 | 10.27094 | 123.93961 | 907 ft | 134 kts | 46° |
| 2026-04-30 09:24 | 10.27748 | 123.94633 | 741 ft | 134 kts | 45° |
| 2026-04-30 09:25 | 10.28415 | 123.95307 | 528 ft | 133 kts | 45° |
| 2026-04-30 09:25 | 10.29072 | 123.95966 | 360 ft | 133 kts | 47° |
| 2026-04-30 09:25 | 10.29721 | 123.96627 | 207 ft | 132 kts | 46° |
| 2026-04-30 09:25 | 10.30377 | 123.97289 | 49 ft | 131 kts | 46° |
| 2026-04-30 09:26 | 10.30917 | 123.97835 | 36 ft | 70 kts | 43° |
| 2026-04-30 09:26 | 10.31153 | 123.98071 | 36 ft | 37 kts | 45° |
| 2026-04-30 09:26 | 10.31300 | 123.98219 | 36 ft | 23 kts | 45° |
| 2026-04-30 09:26 | 10.31370 | 123.98289 | 36 ft | 9 kts | 45° |
| 2026-04-30 09:27 | 10.31405 | 123.98306 | 36 ft | 5 kts | 345° |
| 2026-04-30 09:27 | 10.31438 | 123.98278 | 36 ft | 7 kts | 314° |
| 2026-04-30 09:27 | 10.31476 | 123.98238 | 36 ft | 8 kts | 314° |
| 2026-04-30 09:27 | 10.31523 | 123.98190 | 36 ft | 10 kts | 315° |
| 2026-04-30 09:28 | 10.31567 | 123.98142 | 36 ft | 6 kts | 298° |
| 2026-04-30 09:28 | 10.31558 | 123.98096 | 36 ft | 7 kts | 230° |
| 2026-04-30 09:28 | 10.31519 | 123.98056 | 36 ft | 5 kts | 223° |
| 2026-04-30 09:28 | 10.31506 | 123.98028 | 36 ft | 5 kts | 285° |
| 2026-04-30 09:29 | 10.31527 | 123.98000 | 36 ft | 3 kts | 314° |
| 2026-04-30 09:29 | 10.31546 | 123.97981 | 36 ft | 2 kts | 314° |
| 2026-04-30 09:29 | 10.31550 | 123.97977 | 36 ft | 0 kts | 314° |
| 2026-04-30 09:30 | 10.31550 | 123.97976 | 36 ft | 0 kts | 314° |